createdAt,value
2022-07-26T00:09:09.887Z,97707.63
2022-07-26T00:19:16.642Z,97702.97
2022-07-26T00:29:23.002Z,97698.38
2022-07-26T00:39:30.106Z,97700.25
2022-07-26T00:49:36.425Z,97692.66
2022-07-26T00:59:43.177Z,97675.63
2022-07-26T01:09:49.594Z,97657.09
2022-07-26T01:19:55.930Z,97648.34
2022-07-26T01:30:02.385Z,97637.59
2022-07-26T01:40:09.460Z,97633.00
2022-07-26T01:50:15.751Z,97628.81
2022-07-26T02:00:22.077Z,97615.25
2022-07-26T02:10:51.299Z,97603.09
2022-07-26T02:20:58.006Z,97593.19
2022-07-26T02:31:04.393Z,97593.31
2022-07-26T02:41:11.222Z,97579.41
2022-07-26T02:51:17.710Z,97566.25
2022-07-26T03:01:24.193Z,97569.69
2022-07-26T03:11:30.602Z,97570.06
2022-07-26T03:21:36.919Z,97557.66
2022-07-26T03:31:43.300Z,97549.41
2022-07-26T03:41:49.625Z,97547.00
2022-07-26T03:51:56.766Z,97536.28
2022-07-26T04:02:03.214Z,97539.94
2022-07-26T04:12:09.738Z,97532.88
2022-07-26T04:22:16.054Z,97536.31
2022-07-26T04:32:22.432Z,97537.34
2022-07-26T04:42:28.806Z,97522.47
2022-07-26T04:52:35.365Z,97531.28
2022-07-26T05:02:41.714Z,97550.78
2022-07-26T05:12:48.590Z,97607.41
2022-07-26T05:22:54.975Z,97686.41
2022-07-26T05:33:01.322Z,97632.06
2022-07-26T05:43:07.642Z,97615.63
2022-07-26T05:53:13.926Z,97650.50
2022-07-26T06:03:27.069Z,97640.44
2022-07-26T06:13:33.428Z,97653.63
2022-07-26T06:23:39.753Z,97689.97
2022-07-26T06:33:47.148Z,97707.78
2022-07-26T06:43:53.481Z,97719.03
2022-07-26T06:53:59.842Z,97742.25
2022-07-26T07:04:07.562Z,97766.94
2022-07-26T07:14:14.081Z,97779.97
2022-07-26T07:24:20.655Z,97828.16
2022-07-26T07:34:27.122Z,97824.16
2022-07-26T07:44:33.478Z,97831.69
2022-07-26T07:54:39.944Z,97852.91
2022-07-26T08:04:48.652Z,97860.88
2022-07-26T08:14:56.559Z,97861.06
2022-07-26T08:25:03.199Z,97875.69
2022-07-26T08:35:17.698Z,97871.16
2022-07-26T08:45:27.873Z,97863.50
2022-07-26T08:55:56.858Z,97893.38
2022-07-26T09:06:13.047Z,97902.00
2022-07-26T09:16:20.505Z,97904.22
